createdAt,value
2018-05-25T00:00:11.451Z,87.98
2018-05-25T00:02:04.221Z,88.17
2018-05-25T00:03:04.142Z,88.07
2018-05-25T00:04:56.919Z,88.35
2018-05-25T00:05:56.851Z,87.78
2018-05-25T00:07:49.625Z,87.21
2018-05-25T00:08:49.549Z,86.92
2018-05-25T00:10:42.327Z,87.92
2018-05-25T00:11:42.253Z,87.44
2018-05-25T00:13:35.027Z,88.02
2018-05-25T00:14:34.953Z,87.25
2018-05-25T00:16:27.773Z,87.73
2018-05-25T00:17:27.665Z,87.54
2018-05-25T00:19:20.443Z,87.05
2018-05-25T00:20:20.374Z,87.25
2018-05-25T00:22:13.157Z,88.31
2018-05-25T00:23:13.076Z,87.92
2018-05-25T00:25:05.847Z,87.82
2018-05-25T00:26:05.787Z,87.54
2018-05-25T00:27:58.571Z,87.82
2018-05-25T00:28:58.490Z,88.02
2018-05-25T00:30:51.258Z,87.73
2018-05-25T00:31:51.195Z,87.63
2018-05-25T00:33:43.978Z,87.15
2018-05-25T00:34:43.901Z,87.73
2018-05-25T00:36:36.690Z,87.35
2018-05-25T00:37:36.616Z,87.82
2018-05-25T00:39:29.376Z,87.05
2018-05-25T00:40:29.306Z,87.05
2018-05-25T00:42:22.104Z,87.73
2018-05-25T00:43:22.030Z,88.40
2018-05-25T00:45:14.800Z,87.73
2018-05-25T00:46:14.735Z,87.35
2018-05-25T00:48:07.513Z,86.77
2018-05-25T00:49:07.444Z,87.35
2018-05-25T00:51:00.212Z,87.44
2018-05-25T00:52:00.153Z,87.35
2018-05-25T00:53:52.964Z,87.63
2018-05-25T00:54:52.878Z,88.02
2018-05-25T00:56:45.640Z,87.92
2018-05-25T00:57:45.567Z,87.73
2018-05-25T00:59:38.349Z,87.92
2018-05-25T01:00:38.300Z,87.54
2018-05-25T01:02:31.058Z,88.07
2018-05-25T01:03:30.986Z,88.59
2018-05-25T01:05:23.759Z,88.45
2018-05-25T01:06:23.694Z,88.74
2018-05-25T01:08:16.477Z,88.31
2018-05-25T01:09:16.405Z,87.92
2018-05-25T01:11:09.174Z,87.88
2018-05-25T01:12:09.116Z,88.21
2018-05-25T01:14:01.945Z,87.54
2018-05-25T01:15:01.868Z,88.21
2018-05-25T01:16:54.686Z,87.88
2018-05-25T01:17:54.572Z,88.35
2018-05-25T01:19:47.351Z,88.93
2018-05-25T01:20:47.278Z,89.70
2018-05-25T01:22:40.068Z,89.61
2018-05-25T01:23:39.987Z,89.22
2018-05-25T01:25:32.749Z,88.74
2018-05-25T01:26:32.690Z,89.79
2018-05-25T01:28:25.484Z,89.79
2018-05-25T01:29:25.403Z,89.41
2018-05-25T01:31:18.167Z,89.89
2018-05-25T01:32:18.106Z,89.70
2018-05-25T01:34:10.903Z,89.41
2018-05-25T01:35:10.820Z,90.23
2018-05-25T01:37:03.589Z,91.19
2018-05-25T01:38:03.533Z,89.85
2018-05-25T01:39:56.324Z,89.75
2018-05-25T01:40:56.244Z,91.09
2018-05-25T01:42:49.020Z,90.14
2018-05-25T01:43:48.953Z,90.23
2018-05-25T01:45:41.726Z,90.14
2018-05-25T01:46:41.662Z,90.04
2018-05-25T01:48:34.440Z,90.04
2018-05-25T01:49:34.371Z,90.23
2018-05-25T01:51:27.136Z,90.33
2018-05-25T01:52:27.075Z,90.23
2018-05-25T01:54:19.851Z,91.28
2018-05-25T01:55:19.783Z,90.90
2018-05-25T01:57:12.555Z,90.90
2018-05-25T01:58:12.491Z,91.28
2018-05-25T02:00:05.264Z,91.09
2018-05-25T02:01:05.194Z,91.24
2018-05-25T02:02:57.979Z,91.63
2018-05-25T02:03:57.906Z,91.72
2018-05-25T02:05:50.684Z,91.05
2018-05-25T02:06:50.622Z,91.53
2018-05-25T02:08:43.520Z,91.72
2018-05-25T02:09:43.428Z,91.53
2018-05-25T02:11:36.229Z,91.43
2018-05-25T02:12:36.169Z,91.91
2018-05-25T02:14:28.947Z,92.54
2018-05-25T02:15:28.863Z,91.49
2018-05-25T02:17:21.646Z,93.11
2018-05-25T02:18:21.585Z,91.96
2018-05-25T02:20:14.367Z,92.44
2018-05-25T02:21:14.290Z,92.92
2018-05-25T02:23:07.077Z,92.54
2018-05-25T02:24:07.010Z,93.11
2018-05-25T02:25:59.799Z,92.54
2018-05-25T02:26:59.714Z,93.49
2018-05-25T02:28:52.499Z,93.59
2018-05-25T02:29:52.425Z,92.35
2018-05-25T02:31:45.209Z,93.30
2018-05-25T02:32:45.137Z,92.73
2018-05-25T02:34:37.921Z,92.82
2018-05-25T02:35:37.851Z,92.63
2018-05-25T02:37:30.611Z,92.35
2018-05-25T02:38:30.546Z,92.73
2018-05-25T02:40:23.341Z,91.77
2018-05-25T02:41:23.255Z,93.69
2018-05-25T02:43:16.025Z,92.35
2018-05-25T02:44:15.964Z,93.11
2018-05-25T02:46:08.760Z,93.21
2018-05-25T02:47:08.680Z,93.40
2018-05-25T02:49:01.490Z,92.54
2018-05-25T02:50:01.412Z,91.96
2018-05-25T02:51:54.177Z,92.54
2018-05-25T02:52:54.112Z,92.44
2018-05-25T02:54:46.901Z,92.73
2018-05-25T02:55:46.811Z,93.26
2018-05-25T02:57:39.615Z,92.11
2018-05-25T02:58:39.518Z,93.16
2018-05-25T03:00:32.289Z,92.78
2018-05-25T03:01:32.213Z,93.35
2018-05-25T03:03:24.992Z,93.74
2018-05-25T03:04:24.920Z,92.87
2018-05-25T03:06:17.724Z,93.45
2018-05-25T03:07:17.651Z,92.49
2018-05-25T03:09:10.442Z,92.68
2018-05-25T03:10:10.376Z,93.54
2018-05-25T03:12:03.158Z,93.93
2018-05-25T03:13:03.105Z,93.74
2018-05-25T03:14:55.869Z,93.16
2018-05-25T03:15:55.802Z,94.02
2018-05-25T03:17:48.560Z,93.45
2018-05-25T03:18:48.500Z,93.26
2018-05-25T03:20:41.278Z,92.78
2018-05-25T03:21:41.198Z,94.12
2018-05-25T03:23:33.964Z,92.97
2018-05-25T03:24:33.903Z,93.74
2018-05-25T03:26:26.679Z,92.49
2018-05-25T03:27:26.602Z,92.78
2018-05-25T03:29:19.376Z,92.78
2018-05-25T03:30:19.310Z,92.49
2018-05-25T03:32:12.075Z,92.49
2018-05-25T03:33:11.998Z,92.68
2018-05-25T03:35:04.784Z,92.58
2018-05-25T03:36:04.709Z,93.07
2018-05-25T03:37:57.488Z,93.45
2018-05-25T03:38:57.427Z,93.93
2018-05-25T03:40:50.195Z,93.26
2018-05-25T03:41:50.125Z,93.07
2018-05-25T03:43:42.892Z,92.58
2018-05-25T03:44:42.822Z,92.97
2018-05-25T03:46:35.602Z,93.45
2018-05-25T03:47:35.521Z,92.49
2018-05-25T03:49:28.304Z,91.72
2018-05-25T03:50:28.240Z,93.16
2018-05-25T03:52:21.017Z,92.30
2018-05-25T03:53:20.948Z,92.68
2018-05-25T03:55:13.728Z,92.73
2018-05-25T03:56:13.660Z,93.78
2018-05-25T03:58:06.443Z,92.49
2018-05-25T03:59:06.394Z,91.72
2018-05-25T04:00:59.143Z,92.44
2018-05-25T04:01:59.075Z,92.92
2018-05-25T04:03:51.846Z,92.87
2018-05-25T04:04:51.816Z,92.54
2018-05-25T04:06:44.565Z,92.25
2018-05-25T04:07:44.531Z,92.73
2018-05-25T04:09:37.266Z,92.63
2018-05-25T04:10:37.198Z,93.21
2018-05-25T04:12:29.987Z,93.11
2018-05-25T04:13:29.914Z,93.78
2018-05-25T04:15:22.808Z,93.40
2018-05-25T04:16:22.622Z,92.73
2018-05-25T04:18:15.411Z,94.07
2018-05-25T04:19:15.357Z,93.40
2018-05-25T04:21:08.120Z,92.92
2018-05-25T04:22:08.040Z,92.73
2018-05-25T04:24:00.813Z,93.30
2018-05-25T04:25:00.749Z,93.49
2018-05-25T04:26:53.547Z,93.40
2018-05-25T04:27:53.467Z,92.25
2018-05-25T04:29:46.281Z,92.97
2018-05-25T04:30:46.181Z,92.82
2018-05-25T04:32:38.957Z,91.86
2018-05-25T04:33:38.877Z,92.10
2018-05-25T04:35:31.671Z,92.01
2018-05-25T04:36:31.607Z,91.14
2018-05-25T04:38:24.411Z,91.19
2018-05-25T04:39:24.324Z,90.81
2018-05-25T04:41:17.097Z,90.42
2018-05-25T04:42:17.023Z,89.65
2018-05-25T04:44:09.796Z,89.51
2018-05-25T04:45:09.739Z,87.88
2018-05-25T04:47:02.565Z,87.78
2018-05-25T04:48:02.466Z,88.79
2018-05-25T04:49:55.240Z,86.00
2018-05-25T04:50:55.179Z,84.99
2018-05-25T04:52:47.974Z,84.03
2018-05-25T04:53:47.888Z,82.78
2018-05-25T04:55:40.981Z,83.87
2018-05-25T04:56:40.646Z,81.81
2018-05-25T04:58:33.432Z,78.00
2018-05-25T04:59:33.335Z,74.03
2018-05-25T05:01:26.128Z,66.62
2018-05-25T05:02:26.045Z,65.69
2018-05-25T05:04:18.856Z,60.47
2018-05-25T05:05:18.766Z,59.31
2018-05-25T05:07:11.556Z,56.40
2018-05-25T05:08:11.473Z,55.94
2018-05-25T05:10:04.272Z,54.21
2018-05-25T05:11:04.206Z,53.41
2018-05-25T05:12:57.003Z,54.53
2018-05-25T05:13:56.921Z,55.05
2018-05-25T05:15:49.721Z,51.90
2018-05-25T05:16:49.653Z,52.75
2018-05-25T05:18:42.451Z,52.44
2018-05-25T05:19:42.380Z,52.87
2018-05-25T05:21:35.159Z,51.16
2018-05-25T05:22:35.106Z,49.44
2018-05-25T05:24:27.929Z,51.04
2018-05-25T05:25:27.849Z,51.54
2018-05-25T05:27:20.635Z,50.38
2018-05-25T05:28:20.566Z,50.29
2018-05-25T05:30:13.348Z,49.70
2018-05-25T05:31:13.288Z,49.17
2018-05-25T05:33:06.091Z,49.66
2018-05-25T05:34:06.016Z,50.41
2018-05-25T05:35:58.803Z,47.86
2018-05-25T05:36:58.746Z,47.62
2018-05-25T05:38:51.565Z,47.72
2018-05-25T05:39:51.492Z,48.42
2018-05-25T05:41:44.269Z,47.66
2018-05-25T05:42:44.217Z,48.15
2018-05-25T05:44:37.011Z,47.18
2018-05-25T05:45:36.949Z,46.45
2018-05-25T05:47:29.748Z,45.81
2018-05-25T05:48:29.676Z,44.28
2018-05-25T05:50:22.465Z,44.09
2018-05-25T05:51:22.419Z,43.33
2018-05-25T05:53:15.211Z,43.40
2018-05-25T05:54:15.140Z,44.06
2018-05-25T05:56:07.924Z,44.48
2018-05-25T05:57:07.868Z,43.13
2018-05-25T05:59:00.676Z,42.86
2018-05-25T06:00:00.606Z,43.38
2018-05-25T06:01:53.415Z,44.31
2018-05-25T06:02:53.359Z,44.37
2018-05-25T06:04:46.182Z,45.82
2018-05-25T06:05:46.103Z,46.98
2018-05-25T06:07:38.904Z,46.42
2018-05-25T06:08:38.850Z,44.87
2018-05-25T06:10:31.646Z,45.18
2018-05-25T06:11:31.582Z,45.21
2018-05-25T06:13:24.394Z,44.92
2018-05-25T06:14:24.333Z,43.96
2018-05-25T06:16:17.114Z,44.82
2018-05-25T06:17:17.058Z,45.28
2018-05-25T06:19:09.888Z,43.91
2018-05-25T06:20:09.797Z,43.05
2018-05-25T06:22:02.608Z,44.30
2018-05-25T06:23:02.548Z,44.26
2018-05-25T06:24:55.351Z,43.60
2018-05-25T06:25:55.305Z,44.30
2018-05-25T06:27:48.073Z,42.33
2018-05-25T06:28:48.013Z,43.48
2018-05-25T06:30:40.809Z,44.98
2018-05-25T06:31:40.775Z,42.72
2018-05-25T06:33:33.556Z,42.72
2018-05-25T06:34:33.492Z,42.91
2018-05-25T06:36:26.287Z,42.86
2018-05-25T06:37:26.229Z,41.91
2018-05-25T06:39:19.023Z,41.15
2018-05-25T06:40:18.964Z,41.27
2018-05-25T06:42:11.809Z,41.31
2018-05-25T06:43:11.715Z,40.45
2018-05-25T06:45:04.552Z,38.61
2018-05-25T06:46:04.477Z,37.75
2018-05-25T06:47:57.274Z,38.57
2018-05-25T06:48:57.220Z,38.38
2018-05-25T06:50:50.042Z,39.59
2018-05-25T06:51:49.972Z,38.34
2018-05-25T06:53:42.789Z,39.53
2018-05-25T06:54:42.727Z,38.45
2018-05-25T06:56:35.528Z,36.41
2018-05-25T06:57:35.469Z,37.39
2018-05-25T06:59:28.279Z,36.79
2018-05-25T07:00:28.217Z,37.63
2018-05-25T07:02:21.021Z,38.22
2018-05-25T07:03:20.967Z,39.70
2018-05-25T07:05:13.780Z,37.19
2018-05-25T07:06:13.723Z,37.18
2018-05-25T07:08:06.529Z,36.24
2018-05-25T07:09:06.471Z,37.41
2018-05-25T07:10:59.315Z,36.63
2018-05-25T07:11:59.227Z,36.47
2018-05-25T07:13:52.041Z,36.61
2018-05-25T07:14:51.978Z,37.61
2018-05-25T07:16:44.805Z,36.61
2018-05-25T07:17:44.749Z,37.18
2018-05-25T07:19:37.557Z,38.29
2018-05-25T07:20:37.487Z,36.04
2018-05-25T07:22:30.286Z,36.45
2018-05-25T07:23:30.231Z,35.66
2018-05-25T07:25:23.118Z,36.59
2018-05-25T07:26:22.976Z,36.38
2018-05-25T07:28:15.779Z,37.75
2018-05-25T07:29:15.727Z,38.65
2018-05-25T07:31:08.559Z,38.20
2018-05-25T07:32:08.488Z,36.63
2018-05-25T07:34:01.288Z,35.25
2018-05-25T07:35:01.259Z,36.18
2018-05-25T07:36:54.049Z,37.67
2018-05-25T07:37:53.993Z,37.67
2018-05-25T07:39:46.828Z,38.68
2018-05-25T07:40:46.737Z,38.29
2018-05-25T07:42:39.537Z,37.25
2018-05-25T07:43:39.501Z,36.47
2018-05-25T07:45:32.300Z,35.35
2018-05-25T07:46:32.244Z,36.14
2018-05-25T07:48:25.058Z,36.14
2018-05-25T07:49:24.993Z,37.43
2018-05-25T07:51:17.839Z,38.48
2018-05-25T07:52:17.749Z,38.20
2018-05-25T07:54:10.550Z,38.35
2018-05-25T07:55:10.502Z,38.00
2018-05-25T07:57:03.375Z,36.01
2018-05-25T07:58:03.313Z,35.33
2018-05-25T07:59:56.128Z,34.05
2018-05-25T08:00:56.073Z,34.15
2018-05-25T08:02:48.887Z,34.08
2018-05-25T08:03:48.844Z,36.16
2018-05-25T08:05:41.664Z,38.49
2018-05-25T08:06:41.601Z,38.63
2018-05-25T08:08:34.412Z,37.55
2018-05-25T08:09:34.363Z,39.02
2018-05-25T08:11:27.177Z,41.07
2018-05-25T08:12:27.119Z,38.06
2018-05-25T08:14:19.947Z,36.87
2018-05-25T08:15:19.900Z,38.42
2018-05-25T08:17:12.713Z,39.76
2018-05-25T08:18:12.660Z,36.76
2018-05-25T08:20:05.457Z,36.22
2018-05-25T08:21:05.403Z,36.05
2018-05-25T08:22:58.215Z,34.58
2018-05-25T08:23:58.211Z,35.13
2018-05-25T08:25:51.583Z,34.97
2018-05-25T08:26:51.519Z,34.67
2018-05-25T08:28:44.336Z,33.00
2018-05-25T08:29:44.271Z,33.95
2018-05-25T08:31:37.103Z,35.62
2018-05-25T08:32:37.047Z,36.72
2018-05-25T08:34:29.841Z,36.80
2018-05-25T08:35:29.790Z,34.38
2018-05-25T08:37:22.617Z,34.56
2018-05-25T08:38:22.555Z,35.38
2018-05-25T08:40:15.398Z,34.11
2018-05-25T08:41:15.326Z,33.43
2018-05-25T08:43:08.146Z,35.23
2018-05-25T08:44:08.090Z,35.24
2018-05-25T08:46:00.905Z,33.94
2018-05-25T08:47:00.858Z,36.11
2018-05-25T08:48:53.683Z,34.67
2018-05-25T08:49:53.625Z,32.97
2018-05-25T08:51:46.467Z,35.39
2018-05-25T08:52:46.394Z,35.21
2018-05-25T08:54:39.246Z,36.47
2018-05-25T08:55:39.156Z,34.61
2018-05-25T08:57:31.994Z,36.60
2018-05-25T08:58:31.943Z,35.82
2018-05-25T09:00:24.764Z,34.34
2018-05-25T09:01:24.692Z,34.51
2018-05-25T09:03:17.517Z,35.17
2018-05-25T09:04:17.458Z,34.28
2018-05-25T09:06:10.283Z,35.16
2018-05-25T09:07:10.233Z,36.22
2018-05-25T09:09:03.083Z,35.31
2018-05-25T09:10:02.991Z,34.93
2018-05-25T09:11:55.808Z,34.36
2018-05-25T09:12:55.746Z,33.17
2018-05-25T09:14:48.572Z,33.48
2018-05-25T09:15:48.531Z,34.06
2018-05-25T09:17:41.426Z,33.90
2018-05-25T09:18:41.313Z,35.47
2018-05-25T09:20:34.104Z,35.17
2018-05-25T09:21:34.069Z,35.78
2018-05-25T09:23:26.867Z,34.00
2018-05-25T09:24:26.806Z,34.75
2018-05-25T09:26:19.675Z,37.87
2018-05-25T09:27:19.584Z,37.90
2018-05-25T09:29:12.400Z,34.75
2018-05-25T09:30:12.368Z,35.38
2018-05-25T09:32:05.198Z,37.30
2018-05-25T09:33:05.137Z,38.28
2018-05-25T09:34:57.948Z,36.36
2018-05-25T09:35:57.907Z,36.34
2018-05-25T09:37:50.715Z,37.11
2018-05-25T09:38:50.658Z,38.30
2018-05-25T09:40:43.478Z,36.38
2018-05-25T09:41:43.439Z,36.94
2018-05-25T09:43:36.264Z,36.62
2018-05-25T09:44:36.203Z,37.43
2018-05-25T09:46:29.044Z,35.91
2018-05-25T09:47:28.960Z,35.52
2018-05-25T09:49:21.758Z,36.00
2018-05-25T09:50:21.767Z,37.12
2018-05-25T09:52:14.534Z,34.01
2018-05-25T09:53:14.472Z,35.50
2018-05-25T09:55:07.298Z,34.11
2018-05-25T09:56:07.290Z,33.00
2018-05-25T09:58:00.053Z,35.13
2018-05-25T09:59:00.013Z,34.74
2018-05-25T10:00:52.807Z,35.66
2018-05-25T10:01:52.758Z,35.60
2018-05-25T10:03:45.597Z,35.60
2018-05-25T10:04:45.529Z,35.13
2018-05-25T10:06:38.333Z,34.98
2018-05-25T10:07:38.284Z,33.48
2018-05-25T10:09:31.107Z,34.13
2018-05-25T10:10:31.033Z,35.22
2018-05-25T10:12:23.865Z,34.80
2018-05-25T10:13:23.796Z,35.84
2018-05-25T10:15:16.625Z,37.27
2018-05-25T10:16:16.578Z,37.57
2018-05-25T10:18:09.403Z,35.35
2018-05-25T10:19:09.344Z,36.46
2018-05-25T10:21:02.150Z,35.38
2018-05-25T10:22:02.092Z,35.45
2018-05-25T10:23:54.898Z,37.62
2018-05-25T10:24:54.833Z,38.20
2018-05-25T10:26:47.642Z,37.05
2018-05-25T10:27:47.608Z,38.18
2018-05-25T10:29:40.396Z,38.22
2018-05-25T10:30:40.339Z,36.68
2018-05-25T10:32:33.180Z,35.92
2018-05-25T10:33:33.089Z,36.99
2018-05-25T10:35:25.884Z,36.80
2018-05-25T10:36:25.833Z,36.72
2018-05-25T10:38:18.640Z,36.00
2018-05-25T10:39:18.589Z,35.90
2018-05-25T10:41:11.379Z,36.51
2018-05-25T10:42:11.341Z,35.94
2018-05-25T10:44:04.132Z,36.02
2018-05-25T10:45:04.069Z,35.63
2018-05-25T10:46:56.885Z,35.43
2018-05-25T10:47:56.835Z,37.50
2018-05-25T10:49:49.641Z,35.77
2018-05-25T10:50:49.587Z,34.58
2018-05-25T10:52:42.401Z,36.52
2018-05-25T10:53:42.333Z,35.94
2018-05-25T10:55:35.127Z,35.59
2018-05-25T10:56:35.062Z,37.55
2018-05-25T10:58:27.906Z,38.38
2018-05-25T10:59:27.818Z,38.73
2018-05-25T11:01:20.612Z,39.53
2018-05-25T11:02:20.560Z,39.55
2018-05-25T11:04:13.362Z,38.30
2018-05-25T11:05:13.302Z,38.10
2018-05-25T11:07:06.100Z,37.45
2018-05-25T11:08:06.052Z,36.58
2018-05-25T11:09:58.874Z,36.13
2018-05-25T11:10:58.791Z,36.62
2018-05-25T11:12:51.600Z,35.16
2018-05-25T11:13:51.539Z,36.04
2018-05-25T11:15:44.354Z,35.49
2018-05-25T11:16:44.290Z,37.19
2018-05-25T11:18:37.101Z,36.68
2018-05-25T11:19:37.034Z,37.07
2018-05-25T11:21:29.832Z,35.61
2018-05-25T11:22:29.774Z,36.39
2018-05-25T11:24:22.593Z,35.71
2018-05-25T11:25:22.510Z,36.13
2018-05-25T11:27:15.316Z,33.79
2018-05-25T11:28:15.251Z,34.65
2018-05-25T11:30:08.059Z,35.16
2018-05-25T11:31:07.987Z,35.46
2018-05-25T11:33:00.795Z,33.80
2018-05-25T11:34:00.744Z,34.39
2018-05-25T11:35:53.562Z,35.64
2018-05-25T11:36:53.491Z,35.55
2018-05-25T11:38:46.338Z,33.98
2018-05-25T11:39:46.250Z,35.04
2018-05-25T11:41:39.055Z,36.08
2018-05-25T11:42:38.998Z,36.16
2018-05-25T11:44:31.831Z,37.58
2018-05-25T11:45:31.767Z,38.26
2018-05-25T11:47:24.555Z,38.17
2018-05-25T11:48:24.514Z,39.43
2018-05-25T11:50:17.359Z,38.38
2018-05-25T11:51:17.247Z,37.77
2018-05-25T11:53:10.047Z,38.56
2018-05-25T11:54:09.991Z,38.46
2018-05-25T11:56:02.788Z,38.95
2018-05-25T11:57:02.737Z,37.70
2018-05-25T11:58:55.534Z,38.57
2018-05-25T11:59:55.472Z,37.70
2018-05-25T12:01:48.315Z,37.29
2018-05-25T12:02:48.210Z,37.27
2018-05-25T12:04:41.008Z,38.05
2018-05-25T12:05:40.931Z,39.03
2018-05-25T12:07:33.737Z,42.02
2018-05-25T12:08:33.678Z,39.39
2018-05-25T12:10:26.487Z,39.49
2018-05-25T12:11:26.410Z,38.34
2018-05-25T12:13:19.208Z,37.95
2018-05-25T12:14:19.153Z,38.42
2018-05-25T12:16:11.956Z,39.39
2018-05-25T12:17:11.891Z,39.59
2018-05-25T12:19:04.675Z,39.59
2018-05-25T12:20:04.621Z,38.71
2018-05-25T12:21:57.431Z,40.95
2018-05-25T12:22:57.356Z,40.73
2018-05-25T12:24:50.152Z,41.24
2018-05-25T12:25:50.152Z,41.44
2018-05-25T12:27:42.875Z,38.81
2018-05-25T12:28:42.815Z,38.62
2018-05-25T12:30:35.614Z,38.91
2018-05-25T12:31:35.549Z,39.78
2018-05-25T12:33:28.339Z,39.47
2018-05-25T12:34:28.281Z,40.08
2018-05-25T12:36:21.090Z,39.49
2018-05-25T12:37:21.010Z,41.06
2018-05-25T12:39:13.784Z,37.68
2018-05-25T12:40:13.728Z,38.75
2018-05-25T12:42:06.523Z,39.43
2018-05-25T12:43:06.471Z,40.13
2018-05-25T12:44:59.256Z,40.06
2018-05-25T12:45:59.191Z,38.79
2018-05-25T12:47:51.985Z,39.45
2018-05-25T12:48:51.918Z,39.55
2018-05-25T12:50:44.787Z,39.47
2018-05-25T12:51:44.710Z,38.49
2018-05-25T12:53:37.494Z,41.46
2018-05-25T12:54:37.444Z,39.72
2018-05-25T12:56:30.242Z,37.96
2018-05-25T12:57:30.169Z,37.87
2018-05-25T12:59:22.983Z,38.34
2018-05-25T13:00:22.940Z,39.20
2018-05-25T13:02:15.719Z,38.48
2018-05-25T13:03:15.649Z,39.82
2018-05-25T13:05:08.438Z,39.92
2018-05-25T13:06:08.402Z,39.70
2018-05-25T13:08:01.184Z,39.80
2018-05-25T13:09:01.120Z,40.88
2018-05-25T13:10:53.923Z,38.83
2018-05-25T13:11:53.853Z,39.80
2018-05-25T13:13:46.637Z,39.41
2018-05-25T13:14:46.586Z,39.39
2018-05-25T13:16:39.371Z,41.44
2018-05-25T13:17:39.326Z,39.98
2018-05-25T13:19:32.116Z,41.14
2018-05-25T13:20:32.048Z,40.75
2018-05-25T13:22:24.844Z,42.49
2018-05-25T13:23:24.792Z,41.42
2018-05-25T13:25:17.561Z,42.49
2018-05-25T13:26:17.508Z,42.10
2018-05-25T13:28:10.318Z,43.95
2018-05-25T13:29:10.242Z,44.53
2018-05-25T13:31:03.048Z,41.80
2018-05-25T13:32:02.982Z,41.39
2018-05-25T13:33:55.774Z,42.08
2018-05-25T13:34:55.714Z,43.24
2018-05-25T13:36:48.511Z,42.85
2018-05-25T13:37:48.445Z,42.29
2018-05-25T13:39:41.225Z,42.46
2018-05-25T13:40:41.164Z,43.05
2018-05-25T13:42:33.964Z,45.45
2018-05-25T13:43:33.897Z,44.09
2018-05-25T13:45:26.674Z,44.09
2018-05-25T13:46:26.638Z,42.95
2018-05-25T13:48:19.481Z,44.00
2018-05-25T13:49:19.390Z,43.12
2018-05-25T13:51:12.236Z,44.09
2018-05-25T13:52:12.182Z,44.00
2018-05-25T13:54:04.980Z,43.61
2018-05-25T13:55:04.915Z,44.41
2018-05-25T13:56:57.722Z,44.31
2018-05-25T13:57:57.655Z,44.21
2018-05-25T13:59:50.461Z,43.41
2018-05-25T14:00:50.414Z,44.21
2018-05-25T14:02:43.186Z,43.22
2018-05-25T14:03:43.105Z,43.51
2018-05-25T14:05:35.941Z,44.09
2018-05-25T14:06:35.823Z,43.90
2018-05-25T14:08:28.667Z,44.21
2018-05-25T14:09:28.563Z,42.95
2018-05-25T14:11:21.418Z,43.55
2018-05-25T14:12:21.313Z,42.68
2018-05-25T14:14:14.115Z,44.16
2018-05-25T14:15:14.031Z,43.38
2018-05-25T14:17:06.834Z,42.14
2018-05-25T14:18:06.752Z,41.75
2018-05-25T14:19:59.546Z,42.02
2018-05-25T14:20:59.501Z,41.53
2018-05-25T14:22:52.296Z,42.21
2018-05-25T14:23:52.255Z,41.65
2018-05-25T14:25:45.003Z,41.16
2018-05-25T14:26:44.953Z,41.65
2018-05-25T14:28:37.743Z,41.26
2018-05-25T14:29:37.673Z,41.28
2018-05-25T14:31:30.523Z,39.72
2018-05-25T14:32:30.415Z,40.60
2018-05-25T14:34:23.222Z,39.82
2018-05-25T14:35:23.151Z,40.70
2018-05-25T14:37:15.950Z,40.97
2018-05-25T14:38:15.880Z,39.61
2018-05-25T14:40:08.664Z,39.39
2018-05-25T14:41:08.613Z,39.67
2018-05-25T14:43:01.409Z,41.13
2018-05-25T14:44:01.337Z,41.03
2018-05-25T14:45:54.147Z,40.54
2018-05-25T14:46:54.076Z,41.13
2018-05-25T14:48:46.869Z,41.03
2018-05-25T14:49:46.798Z,41.42
2018-05-25T14:51:39.595Z,41.10
2018-05-25T14:52:39.548Z,40.91
2018-05-25T14:54:32.336Z,41.51
2018-05-25T14:55:32.304Z,40.34
2018-05-25T14:57:25.079Z,41.61
2018-05-25T14:58:24.997Z,40.54
2018-05-25T15:00:17.795Z,40.72
2018-05-25T15:01:17.761Z,40.52
2018-05-25T15:03:10.561Z,41.10
2018-05-25T15:04:10.480Z,41.51
2018-05-25T15:06:03.278Z,40.62
2018-05-25T15:07:03.220Z,41.39
2018-05-25T15:08:56.165Z,42.00
2018-05-25T15:09:55.982Z,41.90
2018-05-25T15:11:48.816Z,42.78
2018-05-25T15:12:48.729Z,42.31
2018-05-25T15:14:41.525Z,42.11
2018-05-25T15:15:41.449Z,42.31
2018-05-25T15:17:34.240Z,41.93
2018-05-25T15:18:34.200Z,42.11
2018-05-25T15:20:26.975Z,41.53
2018-05-25T15:21:26.906Z,41.32
2018-05-25T15:23:19.704Z,41.42
2018-05-25T15:24:19.638Z,41.42
2018-05-25T15:26:12.435Z,42.29
2018-05-25T15:27:12.362Z,41.14
2018-05-25T15:29:05.157Z,41.44
2018-05-25T15:30:05.094Z,41.34
2018-05-25T15:31:57.942Z,40.37
2018-05-25T15:32:57.826Z,40.93
2018-05-25T15:34:50.738Z,40.33
2018-05-25T15:35:50.623Z,40.52
2018-05-25T15:37:43.414Z,40.52
2018-05-25T15:38:43.421Z,39.94
2018-05-25T15:40:36.169Z,40.91
2018-05-25T15:41:36.093Z,39.94
2018-05-25T15:43:28.903Z,39.92
2018-05-25T15:44:28.824Z,41.38
2018-05-25T15:46:21.671Z,40.69
2018-05-25T15:47:21.586Z,39.53
2018-05-25T15:49:14.380Z,40.01
2018-05-25T15:50:14.313Z,40.99
2018-05-25T15:52:07.138Z,41.30
2018-05-25T15:53:07.085Z,43.12
2018-05-25T15:54:59.900Z,42.56
2018-05-25T15:55:59.821Z,43.63
2018-05-25T15:57:52.594Z,41.10
2018-05-25T15:58:52.531Z,40.99
2018-05-25T16:00:45.329Z,41.18
2018-05-25T16:01:45.259Z,42.93
2018-05-25T16:03:38.995Z,43.15
2018-05-25T16:04:38.921Z,43.54
2018-05-25T16:06:31.663Z,42.95
2018-05-25T16:07:31.609Z,43.05
2018-05-25T16:09:24.399Z,41.77
2018-05-25T16:10:24.345Z,42.05
2018-05-25T16:12:17.112Z,43.22
2018-05-25T16:13:17.087Z,44.00
2018-05-25T16:15:09.848Z,42.74
2018-05-25T16:16:09.780Z,41.67
2018-05-25T16:18:02.590Z,42.81
2018-05-25T16:19:02.511Z,42.03
2018-05-25T16:20:55.318Z,43.02
2018-05-25T16:21:55.243Z,42.52
2018-05-25T16:23:48.160Z,42.81
2018-05-25T16:24:47.969Z,43.32
2018-05-25T16:26:40.784Z,44.09
2018-05-25T16:27:40.761Z,42.74
2018-05-25T16:29:33.517Z,42.54
2018-05-25T16:30:33.432Z,43.49
2018-05-25T16:32:26.199Z,43.98
2018-05-25T16:33:26.147Z,43.88
2018-05-25T16:35:18.937Z,44.75
2018-05-25T16:36:18.885Z,44.07
2018-05-25T16:38:11.833Z,44.07
2018-05-25T16:39:11.637Z,44.17
2018-05-25T16:41:04.423Z,42.52
2018-05-25T16:42:04.349Z,43.88
2018-05-25T16:43:57.136Z,45.34
2018-05-25T16:44:57.078Z,44.17
2018-05-25T16:46:49.876Z,44.24
2018-05-25T16:47:49.806Z,43.95
2018-05-25T16:49:42.598Z,42.30
2018-05-25T16:50:42.534Z,43.27
2018-05-25T16:52:35.327Z,42.02
2018-05-25T16:53:35.272Z,43.08
2018-05-25T16:55:28.067Z,43.86
2018-05-25T16:56:27.998Z,43.86
2018-05-25T16:58:20.783Z,42.79
2018-05-25T16:59:20.764Z,43.76
2018-05-25T17:01:13.518Z,43.66
2018-05-25T17:02:13.446Z,43.95
2018-05-25T17:04:30.739Z,44.51
2018-05-25T17:05:30.678Z,44.90
2018-05-25T17:07:23.462Z,45.65
2018-05-25T17:08:23.395Z,46.24
2018-05-25T17:10:16.232Z,46.53
2018-05-25T17:11:16.124Z,46.51
2018-05-25T17:13:08.919Z,47.77
2018-05-25T17:14:08.864Z,48.15
2018-05-25T17:16:01.657Z,47.94
2018-05-25T17:17:01.576Z,47.64
2018-05-25T17:18:54.366Z,48.22
2018-05-25T17:19:54.308Z,47.94
2018-05-25T17:21:47.105Z,48.81
2018-05-25T17:22:47.035Z,48.52
2018-05-25T17:24:39.837Z,48.71
2018-05-25T17:25:39.777Z,49.19
2018-05-25T17:27:32.595Z,48.79
2018-05-25T17:28:32.517Z,48.69
2018-05-25T17:30:25.381Z,48.39
2018-05-25T17:31:25.251Z,48.79
2018-05-25T17:33:18.044Z,49.65
2018-05-25T17:34:17.979Z,49.56
2018-05-25T17:36:10.823Z,51.01
2018-05-25T17:37:10.701Z,49.85
2018-05-25T17:39:03.492Z,49.65
2018-05-25T17:40:03.445Z,50.43
2018-05-25T17:41:56.254Z,50.98
2018-05-25T17:42:56.182Z,50.04
2018-05-25T17:44:49.036Z,50.31
2018-05-25T17:45:48.958Z,50.31
2018-05-25T17:47:41.746Z,50.98
2018-05-25T17:48:41.675Z,51.18
2018-05-25T17:50:34.504Z,51.18
2018-05-25T17:51:34.395Z,50.98
2018-05-25T17:53:27.209Z,50.18
2018-05-25T17:54:27.110Z,50.86
2018-05-25T17:56:19.892Z,51.83
2018-05-25T17:57:19.822Z,52.31
2018-05-25T17:59:12.614Z,51.35
2018-05-25T18:00:12.597Z,50.96
2018-05-25T18:02:05.344Z,51.35
2018-05-25T18:03:05.333Z,51.44
2018-05-25T18:04:58.059Z,50.18
2018-05-25T18:05:58.056Z,49.90
2018-05-25T18:07:50.808Z,51.15
2018-05-25T18:08:50.743Z,50.55
2018-05-25T18:10:43.529Z,51.81
2018-05-25T18:11:43.463Z,52.09
2018-05-25T18:13:36.274Z,51.81
2018-05-25T18:14:36.203Z,51.23
2018-05-25T18:16:29.008Z,50.93
2018-05-25T18:17:28.981Z,51.01
2018-05-25T18:19:21.719Z,51.78
2018-05-25T18:20:21.651Z,52.17
2018-05-25T18:22:14.458Z,51.49
2018-05-25T18:23:14.380Z,51.97
2018-05-25T18:25:07.157Z,51.97
2018-05-25T18:26:07.107Z,52.17
2018-05-25T18:27:59.900Z,51.07
2018-05-25T18:28:59.828Z,51.85
2018-05-25T18:30:52.605Z,51.56
2018-05-25T18:31:52.549Z,52.43